Time;durP1;ratioP1;P1;durP2;ratioP2;P2;SDS_P1;SDS_P2;PMS_P1;PMS_P2;Temp;Humidity;BMP_temperature;BMP_pressure;BME280_temperature;BME280_humidity;BME280_pressure;Samples;Min_cycle;Max_cycle;Signal;HPM_P1;HPM_P2
2021/09/11 00:00:42;;;;;;;17.33;8.23;;;;;;;;;;5030588;28;20041;-56
2021/09/11 00:03:08;;;;;;;14.40;7.97;;;;;;;;;;5027986;28;20030;-54
2021/09/11 00:05:35;;;;;;;18.20;8.38;;;;;;;;;;5022976;28;20045;-56
2021/09/11 00:08:01;;;;;;;15.88;7.85;;;;;;;;;;5025602;28;20048;-54
2021/09/11 00:10:28;;;;;;;15.00;8.25;;;;;;;;;;5022551;28;20033;-56
2021/09/11 00:12:54;;;;;;;17.05;8.00;;;;;;;;;;5044871;28;20122;-56
2021/09/11 00:15:22;;;;;;;16.50;8.30;;;;;;;;;;5038765;28;20045;-54
2021/09/11 00:17:48;;;;;;;25.90;8.38;;;;;;;;;;5042314;28;20060;-51
2021/09/11 00:20:15;;;;;;;18.90;7.72;;;;;;;;;;5052952;28;20061;-54
2021/09/11 00:22:42;;;;;;;15.88;8.25;;;;;;;;;;5043269;28;20041;-54
2021/09/11 00:25:09;;;;;;;16.10;8.30;;;;;;;;;;5040877;28;20033;-55
2021/09/11 00:27:35;;;;;;;15.82;7.85;;;;;;;;;;5044569;28;20056;-55
2021/09/11 00:30:02;;;;;;;14.00;6.88;;;;;;;;;;5022758;28;20045;-54
2021/09/11 00:32:29;;;;;;;16.77;7.93;;;;;;;;;;5038413;28;20164;-55
2021/09/11 00:34:57;;;;;;;13.52;7.90;;;;;;;;;;5040239;28;20041;-55
2021/09/11 00:37:23;;;;;;;12.60;7.40;;;;;;;;;;5023903;28;20065;-56
2021/09/11 00:39:50;;;;;;;16.98;7.35;;;;;;;;;;5043465;28;20037;-52
2021/09/11 00:42:16;;;;;;;16.42;6.93;;;;;;;;;;5022819;28;20049;-57
2021/09/11 00:44:43;;;;;;;12.18;6.40;;;;;;;;;;5027048;28;20041;-56
2021/09/11 00:47:09;;;;;;;14.52;7.18;;;;;;;;;;5036191;28;20038;-56
2021/09/11 00:49:37;;;;;;;13.38;6.40;;;;;;;;;;5039980;28;20102;-51
2021/09/11 00:52:03;;;;;;;12.75;6.07;;;;;;;;;;5039661;28;20045;-54
2021/09/11 00:54:30;;;;;;;12.75;6.68;;;;;;;;;;5043879;28;20040;-57
2021/09/11 00:56:57;;;;;;;16.02;6.70;;;;;;;;;;5040738;28;20098;-54
2021/09/11 00:59:24;;;;;;;14.57;6.43;;;;;;;;;;5044770;28;20037;-56
2021/09/11 01:01:50;;;;;;;14.50;7.20;;;;;;;;;;5040505;28;20059;-54
2021/09/11 01:04:17;;;;;;;12.10;6.90;;;;;;;;;;5044252;28;20042;-55
2021/09/11 01:06:46;;;;;;;14.00;6.60;;;;;;;;;;5041205;28;20033;-55
2021/09/11 01:09:13;;;;;;;15.45;7.18;;;;;;;;;;5044602;28;20041;-56
2021/09/11 01:11:41;;;;;;;12.63;6.97;;;;;;;;;;5012662;28;20053;-56
2021/09/11 01:14:07;;;;;;;13.93;6.15;;;;;;;;;;5041929;28;20060;-55
2021/09/11 01:16:35;;;;;;;16.85;6.68;;;;;;;;;;5044156;28;20051;-54
2021/09/11 01:19:01;;;;;;;14.30;6.13;;;;;;;;;;5024263;28;20041;-56
2021/09/11 01:21:27;;;;;;;15.82;6.47;;;;;;;;;;5026139;28;20051;-55
2021/09/11 01:23:55;;;;;;;13.48;6.28;;;;;;;;;;5023527;28;20033;-53
2021/09/11 01:26:22;;;;;;;14.57;6.97;;;;;;;;;;5025637;28;20041;-56
2021/09/11 01:28:48;;;;;;;13.73;5.72;;;;;;;;;;5022922;28;20049;-56
2021/09/11 01:31:15;;;;;;;16.67;6.45;;;;;;;;;;5044699;28;20041;-54
2021/09/11 01:33:41;;;;;;;13.88;6.38;;;;;;;;;;5023757;28;20060;-55
2021/09/11 01:36:09;;;;;;;13.00;5.68;;;;;;;;;;5044152;28;20033;-56
2021/09/11 01:38:35;;;;;;;16.25;6.35;;;;;;;;;;5024649;28;20040;-56
2021/09/11 01:41:03;;;;;;;11.73;5.97;;;;;;;;;;5027959;28;20037;-55
2021/09/11 01:43:30;;;;;;;13.27;6.15;;;;;;;;;;5025461;28;20048;-56
2021/09/11 01:45:57;;;;;;;13.90;6.55;;;;;;;;;;5043439;28;20037;-54
2021/09/11 01:48:24;;;;;;;14.82;5.80;;;;;;;;;;5037058;28;20062;-53
2021/09/11 01:50:50;;;;;;;13.30;6.45;;;;;;;;;;5025416;28;20033;-56
2021/09/11 01:53:17;;;;;;;10.98;5.47;;;;;;;;;;5021918;28;20056;-55
2021/09/11 01:55:43;;;;;;;11.25;5.65;;;;;;;;;;5024111;28;20123;-56
2021/09/11 01:58:13;;;;;;;12.77;6.22;;;;;;;;;;5041155;28;20041;-54
2021/09/11 02:00:40;;;;;;;16.73;6.00;;;;;;;;;;5024291;28;20053;-56
2021/09/11 02:03:07;;;;;;;15.43;6.20;;;;;;;;;;5042790;28;20130;-56
2021/09/11 02:05:34;;;;;;;12.43;6.35;;;;;;;;;;5039678;28;20037;-54
2021/09/11 02:08:00;;;;;;;14.15;6.65;;;;;;;;;;5041809;28;20036;-56
2021/09/11 02:10:27;;;;;;;15.02;7.65;;;;;;;;;;5032710;28;20078;-55
2021/09/11 02:12:53;;;;;;;15.23;6.90;;;;;;;;;;5022097;28;20033;-52
2021/09/11 02:15:21;;;;;;;14.68;7.13;;;;;;;;;;5021704;28;20048;-55
2021/09/11 02:17:48;;;;;;;14.25;7.00;;;;;;;;;;5025320;28;20041;-55
2021/09/11 02:20:14;;;;;;;11.85;6.32;;;;;;;;;;5035266;28;20041;-54
2021/09/11 02:22:41;;;;;;;16.95;6.32;;;;;;;;;;5022443;28;20045;-55
2021/09/11 02:25:08;;;;;;;17.08;6.75;;;;;;;;;;5034806;28;20049;-56
2021/09/11 02:27:35;;;;;;;14.93;6.15;;;;;;;;;;5005765;28;20057;-55
2021/09/11 02:30:02;;;;;;;14.45;6.38;;;;;;;;;;5007790;28;20029;-56
2021/09/11 02:32:30;;;;;;;13.68;5.53;;;;;;;;;;5042486;28;20037;-55
2021/09/11 02:34:56;;;;;;;13.90;6.22;;;;;;;;;;5038426;28;20057;-55
2021/09/11 02:37:23;;;;;;;14.02;5.82;;;;;;;;;;5026979;28;20072;-54
2021/09/11 02:39:49;;;;;;;14.20;5.75;;;;;;;;;;5023868;28;20044;-54
2021/09/11 02:42:16;;;;;;;11.93;6.00;;;;;;;;;;5039782;28;20056;-56
2021/09/11 02:44:42;;;;;;;14.32;5.57;;;;;;;;;;5026347;28;20041;-53
2021/09/11 02:47:09;;;;;;;13.85;5.80;;;;;;;;;;5038393;28;20037;-56
2021/09/11 02:49:36;;;;;;;12.18;5.70;;;;;;;;;;5024935;28;20041;-52
2021/09/11 02:52:03;;;;;;;15.87;5.77;;;;;;;;;;5022000;28;20041;-53
2021/09/11 02:54:29;;;;;;;11.63;6.35;;;;;;;;;;5023675;28;20289;-56
2021/09/11 02:56:56;;;;;;;12.82;6.57;;;;;;;;;;5021268;28;20041;-55
2021/09/11 02:59:23;;;;;;;15.98;6.38;;;;;;;;;;5024870;28;20068;-54
2021/09/11 03:01:49;;;;;;;19.30;7.07;;;;;;;;;;5029939;28;20041;-51
2021/09/11 03:04:16;;;;;;;14.35;5.97;;;;;;;;;;5041556;28;20037;-55
2021/09/11 03:06:44;;;;;;;15.40;6.93;;;;;;;;;;5036035;28;20041;-56
2021/09/11 03:09:10;;;;;;;15.35;6.43;;;;;;;;;;5027035;28;20115;-54
2021/09/11 03:11:36;;;;;;;12.32;6.57;;;;;;;;;;5042568;28;20045;-55
2021/09/11 03:14:03;;;;;;;16.45;7.13;;;;;;;;;;5030879;28;20037;-54
2021/09/11 03:16:30;;;;;;;15.27;7.15;;;;;;;;;;5024381;28;20041;-56
2021/09/11 03:18:56;;;;;;;12.40;6.90;;;;;;;;;;5043372;28;20045;-55
2021/09/11 03:21:22;;;;;;;14.18;6.07;;;;;;;;;;5026591;28;20033;-55
2021/09/11 03:23:50;;;;;;;14.02;7.45;;;;;;;;;;5040846;28;20052;-55
2021/09/11 03:26:17;;;;;;;18.73;7.73;;;;;;;;;;5026171;28;20049;-55
2021/09/11 03:28:43;;;;;;;17.73;7.60;;;;;;;;;;5035677;28;20094;-56
2021/09/11 03:31:10;;;;;;;16.98;7.88;;;;;;;;;;5040978;28;20065;-54
2021/09/11 03:33:36;;;;;;;15.00;7.45;;;;;;;;;;5039594;28;20049;-55
2021/09/11 03:36:04;;;;;;;13.82;6.85;;;;;;;;;;5043915;28;20025;-55
2021/09/11 03:38:31;;;;;;;16.88;7.25;;;;;;;;;;5039070;28;20056;-55
2021/09/11 03:40:58;;;;;;;14.77;7.43;;;;;;;;;;5045290;28;20052;-53
2021/09/11 03:43:25;;;;;;;15.57;7.43;;;;;;;;;;5023690;28;20115;-53
2021/09/11 03:45:52;;;;;;;14.55;6.90;;;;;;;;;;5028086;28;20286;-54
2021/09/11 03:48:18;;;;;;;14.00;6.78;;;;;;;;;;5023982;28;20068;-52
2021/09/11 03:50:45;;;;;;;15.13;7.63;;;;;;;;;;5025871;28;20532;-53
2021/09/11 03:53:11;;;;;;;26.08;8.40;;;;;;;;;;5025120;28;20045;-56
2021/09/11 03:55:39;;;;;;;18.77;7.97;;;;;;;;;;5026056;28;20069;-55
2021/09/11 03:58:08;;;;;;;16.97;7.63;;;;;;;;;;5040985;28;20052;-56
2021/09/11 04:00:34;;;;;;;20.48;8.27;;;;;;;;;;5027218;28;20360;-54
2021/09/11 04:03:01;;;;;;;21.13;7.82;;;;;;;;;;5026302;28;20048;-55
2021/09/11 04:05:27;;;;;;;13.80;8.00;;;;;;;;;;5024204;28;20146;-55
2021/09/11 04:07:54;;;;;;;15.88;8.10;;;;;;;;;;5045774;28;20041;-55
2021/09/11 04:10:20;;;;;;;16.33;8.07;;;;;;;;;;5019418;28;20052;-55
2021/09/11 04:12:47;;;;;;;15.57;8.20;;;;;;;;;;5007772;28;20127;-55
2021/09/11 04:15:14;;;;;;;15.45;7.47;;;;;;;;;;5019998;28;20034;-55
2021/09/11 04:17:43;;;;;;;18.63;8.57;;;;;;;;;;5026634;28;20107;-56
2021/09/11 04:20:10;;;;;;;17.73;7.97;;;;;;;;;;5041146;28;20057;-51
2021/09/11 04:22:37;;;;;;;15.93;8.02;;;;;;;;;;5043088;28;20045;-55
2021/09/11 04:25:04;;;;;;;14.52;7.80;;;;;;;;;;5023471;28;20041;-55
2021/09/11 04:27:30;;;;;;;16.52;7.93;;;;;;;;;;5042980;28;20048;-56
2021/09/11 04:29:57;;;;;;;15.70;7.95;;;;;;;;;;5037095;28;20037;-54
2021/09/11 04:32:25;;;;;;;18.00;8.52;;;;;;;;;;5040385;28;20082;-56
2021/09/11 04:34:52;;;;;;;15.48;8.15;;;;;;;;;;5008358;28;20037;-54
2021/09/11 04:37:19;;;;;;;18.50;8.10;;;;;;;;;;5043562;28;20045;-56
2021/09/11 04:39:45;;;;;;;17.83;7.78;;;;;;;;;;5023846;28;20056;-56
2021/09/11 04:42:11;;;;;;;16.38;8.63;;;;;;;;;;5027381;28;20037;-55
2021/09/11 04:44:40;;;;;;;16.02;8.32;;;;;;;;;;5017005;28;20052;-56
2021/09/11 04:47:06;;;;;;;16.92;7.82;;;;;;;;;;5020202;28;20034;-53
2021/09/11 04:49:34;;;;;;;15.60;7.45;;;;;;;;;;5029980;28;20037;-56
2021/09/11 04:52:03;;;;;;;15.88;7.85;;;;;;;;;;5025084;28;20042;-49
2021/09/11 04:54:29;;;;;;;;;;;;;;;;;;5026407;28;20045;-54
2021/09/11 04:56:56;;;;;;;15.93;7.80;;;;;;;;;;5032514;28;19925;-54
2021/09/11 04:59:22;;;;;;;16.70;8.10;;;;;;;;;;5042010;28;20041;-52
2021/09/11 05:01:49;;;;;;;18.88;7.93;;;;;;;;;;5028492;28;20048;-52
2021/09/11 05:04:16;;;;;;;18.13;8.10;;;;;;;;;;4997350;28;20045;-55
2021/09/11 05:06:46;;;;;;;17.73;8.13;;;;;;;;;;4994328;28;20056;-55
2021/09/11 05:09:13;;;;;;;14.13;7.35;;;;;;;;;;4986953;28;20057;-54
2021/09/11 05:11:39;;;;;;;18.40;7.80;;;;;;;;;;4983626;28;20053;-54
2021/09/11 05:14:06;;;;;;;16.90;7.88;;;;;;;;;;4986885;28;20042;-55
2021/09/11 05:16:32;;;;;;;15.55;7.75;;;;;;;;;;5001547;28;20030;-54
2021/09/11 05:18:59;;;;;;;14.23;7.28;;;;;;;;;;4987340;28;20038;-56
2021/09/11 05:21:25;;;;;;;16.05;7.45;;;;;;;;;;5001447;28;20068;-52
2021/09/11 05:23:53;;;;;;;15.05;7.38;;;;;;;;;;5002780;28;20127;-51
2021/09/11 05:26:20;;;;;;;16.17;6.70;;;;;;;;;;4984348;28;20058;-56
2021/09/11 05:28:46;;;;;;;15.18;7.38;;;;;;;;;;4985458;28;20277;-55
2021/09/11 05:31:14;;;;;;;14.35;7.50;;;;;;;;;;4978691;28;20045;-55
2021/09/11 05:33:40;;;;;;;18.48;9.18;;;;;;;;;;4974443;28;20148;-55
2021/09/11 05:36:07;;;;;;;19.08;9.10;;;;;;;;;;4986681;28;20038;-54
2021/09/11 05:38:34;;;;;;;16.23;7.80;;;;;;;;;;4992578;28;20065;-55
2021/09/11 05:41:02;;;;;;;16.55;6.95;;;;;;;;;;5002739;28;20041;-55
2021/09/11 05:43:28;;;;;;;13.87;6.40;;;;;;;;;;4989808;28;20042;-52
2021/09/11 05:45:57;;;;;;;17.52;7.05;;;;;;;;;;5000416;28;20034;-55
2021/09/11 05:48:23;;;;;;;12.95;6.43;;;;;;;;;;4999137;28;20042;-50
2021/09/11 05:50:49;;;;;;;15.98;6.63;;;;;;;;;;4997326;28;20042;-56
2021/09/11 05:53:16;;;;;;;15.65;6.78;;;;;;;;;;5001615;28;20038;-55
2021/09/11 05:55:43;;;;;;;21.35;7.00;;;;;;;;;;4997159;28;20073;-54
2021/09/11 05:58:11;;;;;;;12.18;6.13;;;;;;;;;;5010524;28;20041;-54
2021/09/11 06:00:37;;;;;;;11.67;6.13;;;;;;;;;;5015244;28;20052;-52
2021/09/11 06:03:04;;;;;;;13.10;5.95;;;;;;;;;;4997282;28;20304;-56
2021/09/11 06:05:31;;;;;;;16.63;6.78;;;;;;;;;;4998018;28;20033;-55
2021/09/11 06:07:57;;;;;;;12.55;6.28;;;;;;;;;;4998616;28;20049;-54
2021/09/11 06:10:23;;;;;;;12.57;6.10;;;;;;;;;;5015897;28;20049;-55
2021/09/11 06:12:50;;;;;;;15.27;6.72;;;;;;;;;;5001161;28;20147;-51
2021/09/11 06:15:18;;;;;;;13.20;5.47;;;;;;;;;;4993091;28;20096;-56
2021/09/11 06:17:44;;;;;;;13.82;5.72;;;;;;;;;;4999459;28;20059;-55
2021/09/11 06:20:11;;;;;;;15.00;5.32;;;;;;;;;;4987912;28;20046;-55
2021/09/11 06:22:38;;;;;;;10.35;5.22;;;;;;;;;;5018461;28;20061;-52
2021/09/11 06:25:13;;;;;;;13.63;5.97;;;;;;;;;;5022889;28;20041;-57
2021/09/11 06:27:40;;;;;;;11.50;5.80;;;;;;;;;;5039092;28;20176;-53
2021/09/11 06:30:07;;;;;;;11.52;6.00;;;;;;;;;;5018599;28;20037;-55
2021/09/11 06:32:36;;;;;;;11.57;5.80;;;;;;;;;;5020338;28;20038;-56
2021/09/11 06:35:03;;;;;;;10.90;5.65;;;;;;;;;;5015897;28;20045;-53
2021/09/11 06:37:30;;;;;;;12.27;5.97;;;;;;;;;;5027192;28;20045;-57
2021/09/11 06:39:56;;;;;;;12.52;6.30;;;;;;;;;;5035933;28;20045;-53
2021/09/11 06:42:22;;;;;;;14.32;5.53;;;;;;;;;;5008638;28;20115;-55
2021/09/11 06:44:51;;;;;;;12.68;5.15;;;;;;;;;;5001413;28;20056;-53
2021/09/11 06:47:17;;;;;;;13.77;5.78;;;;;;;;;;5022841;28;20131;-57
2021/09/11 06:49:45;;;;;;;12.82;5.22;;;;;;;;;;5009888;28;20048;-56
2021/09/11 06:52:12;;;;;;;17.07;5.87;;;;;;;;;;5021603;28;20042;-56
2021/09/11 06:54:38;;;;;;;16.80;5.88;;;;;;;;;;5022141;28;20046;-55
2021/09/11 06:57:04;;;;;;;12.27;5.18;;;;;;;;;;5014518;28;20042;-55
2021/09/11 06:59:32;;;;;;;9.35;4.80;;;;;;;;;;5020612;28;20037;-55
2021/09/11 07:01:58;;;;;;;12.23;5.90;;;;;;;;;;5016073;28;20057;-55
2021/09/11 07:04:25;;;;;;;15.45;5.60;;;;;;;;;;5021380;28;20056;-55
2021/09/11 07:06:53;;;;;;;11.52;5.30;;;;;;;;;;5031972;28;20053;-56
2021/09/11 07:09:19;;;;;;;16.50;5.70;;;;;;;;;;5035823;28;20034;-55
2021/09/11 07:11:46;;;;;;;15.48;5.57;;;;;;;;;;5015433;28;20110;-56
2021/09/11 07:14:13;;;;;;;11.32;5.10;;;;;;;;;;5021627;28;20046;-56
2021/09/11 07:16:41;;;;;;;12.75;5.07;;;;;;;;;;5017452;28;20052;-55
2021/09/11 07:19:07;;;;;;;12.80;5.50;;;;;;;;;;5032720;28;20059;-57
2021/09/11 07:21:35;;;;;;;12.35;5.05;;;;;;;;;;5022613;28;20409;-54
2021/09/11 07:24:03;;;;;;;12.07;5.53;;;;;;;;;;5043313;28;20049;-56
2021/09/11 07:26:30;;;;;;;14.10;6.07;;;;;;;;;;5013055;28;20444;-56
2021/09/11 07:28:56;;;;;;;14.65;6.00;;;;;;;;;;5019467;28;20037;-56
2021/09/11 07:31:22;;;;;;;21.25;8.88;;;;;;;;;;4998387;28;20057;-55
2021/09/11 07:33:51;;;;;;;15.55;6.82;;;;;;;;;;5012530;28;20119;-56
2021/09/11 07:36:18;;;;;;;17.98;6.38;;;;;;;;;;5027414;28;20051;-57
2021/09/11 07:38:44;;;;;;;16.88;6.15;;;;;;;;;;5035536;28;20049;-50
2021/09/11 07:41:13;;;;;;;12.52;5.15;;;;;;;;;;5041141;28;20045;-56
2021/09/11 07:43:39;;;;;;;12.38;6.22;;;;;;;;;;5021586;28;20045;-55
2021/09/11 07:46:08;;;;;;;14.90;6.07;;;;;;;;;;5018489;28;20041;-57
2021/09/11 07:48:35;;;;;;;16.65;6.40;;;;;;;;;;5035799;28;20060;-56
2021/09/11 07:51:04;;;;;;;13.00;6.13;;;;;;;;;;5044626;28;20041;-56
2021/09/11 07:53:30;;;;;;;15.27;6.07;;;;;;;;;;5018775;28;20037;-56
2021/09/11 07:55:58;;;;;;;17.80;6.47;;;;;;;;;;5026212;28;20042;-55
2021/09/11 07:58:26;;;;;;;11.63;6.13;;;;;;;;;;5021141;28;20034;-55
2021/09/11 08:00:55;;;;;;;10.75;5.85;;;;;;;;;;5026241;28;20034;-57
2021/09/11 08:03:21;;;;;;;14.18;6.93;;;;;;;;;;5024486;28;20053;-56
2021/09/11 08:05:48;;;;;;;12.30;6.65;;;;;;;;;;5022074;28;20061;-54
2021/09/11 08:08:15;;;;;;;16.95;7.97;;;;;;;;;;5033478;28;20038;-57
2021/09/11 08:10:41;;;;;;;20.20;7.75;;;;;;;;;;5009991;28;20037;-55
2021/09/11 08:13:08;;;;;;;16.85;7.80;;;;;;;;;;5022437;28;20049;-56
2021/09/11 08:15:36;;;;;;;18.45;7.75;;;;;;;;;;5040104;28;20037;-56
2021/09/11 08:18:03;;;;;;;15.60;7.47;;;;;;;;;;5019654;28;20026;-56
2021/09/11 08:20:32;;;;;;;25.55;9.85;;;;;;;;;;5020402;28;20124;-56
2021/09/11 08:23:00;;;;;;;20.75;10.55;;;;;;;;;;5004883;28;20038;-53
2021/09/11 08:25:27;;;;;;;20.33;10.73;;;;;;;;;;5019835;28;20095;-56
2021/09/11 08:27:56;;;;;;;18.52;8.75;;;;;;;;;;5022372;28;20038;-57
2021/09/11 08:30:23;;;;;;;25.55;8.77;;;;;;;;;;5019715;28;20041;-54
2021/09/11 08:32:50;;;;;;;18.08;8.60;;;;;;;;;;5024790;28;20038;-55
2021/09/11 08:35:18;;;;;;;17.27;9.40;;;;;;;;;;5020719;28;20044;-56
2021/09/11 08:37:45;;;;;;;18.73;8.48;;;;;;;;;;5024632;28;20283;-56
2021/09/11 08:40:13;;;;;;;18.42;8.48;;;;;;;;;;5018199;28;20033;-56
2021/09/11 08:42:40;;;;;;;15.82;8.75;;;;;;;;;;5021312;28;20077;-55
2021/09/11 08:45:11;;;;;;;15.60;8.73;;;;;;;;;;5019550;28;20034;-56
2021/09/11 08:47:38;;;;;;;20.08;9.25;;;;;;;;;;5038917;28;20046;-56
2021/09/11 08:50:06;;;;;;;21.95;9.98;;;;;;;;;;5019437;28;20049;-54
2021/09/11 08:52:34;;;;;;;20.33;10.95;;;;;;;;;;5023358;28;20053;-55
2021/09/11 08:55:01;;;;;;;18.35;9.68;;;;;;;;;;5018723;28;20048;-53
2021/09/11 08:57:30;;;;;;;24.05;11.10;;;;;;;;;;5021588;28;20038;-56
2021/09/11 08:59:57;;;;;;;22.20;9.85;;;;;;;;;;5020934;28;20057;-55
2021/09/11 09:02:25;;;;;;;34.40;17.55;;;;;;;;;;5041201;28;20104;-55
2021/09/11 09:04:52;;;;;;;23.90;12.97;;;;;;;;;;5021143;28;20029;-57
2021/09/11 09:07:33;;;;;;;23.60;11.55;;;;;;;;;;5024671;28;20045;-56
2021/09/11 09:10:00;;;;;;;18.30;10.45;;;;;;;;;;5023315;28;20038;-55
2021/09/11 09:12:31;;;;;;;23.63;11.25;;;;;;;;;;5024011;28;20064;-55
2021/09/11 09:15:04;;;;;;;22.13;10.90;;;;;;;;;;5023190;28;20031;-54
2021/09/11 09:17:38;;;;;;;21.38;10.77;;;;;;;;;;5020205;28;20131;-55
2021/09/11 09:20:14;;;;;;;19.15;11.18;;;;;;;;;;5024751;28;20144;-54
2021/09/11 09:22:42;;;;;;;21.65;11.40;;;;;;;;;;5020844;28;20034;-57
2021/09/11 09:25:20;;;;;;;26.40;13.00;;;;;;;;;;5024693;28;20041;-55
2021/09/11 09:27:49;;;;;;;27.85;12.95;;;;;;;;;;5021205;28;20077;-53
2021/09/11 09:30:18;;;;;;;24.33;12.18;;;;;;;;;;5022188;28;20038;-54
2021/09/11 09:32:47;;;;;;;24.88;12.20;;;;;;;;;;5018941;28;20094;-55
2021/09/11 09:35:16;;;;;;;23.52;11.50;;;;;;;;;;5022272;28;20045;-57
2021/09/11 09:37:45;;;;;;;;;;;;;;;;;;5018527;28;20053;-55
2021/09/11 09:40:13;;;;;;;26.48;11.95;;;;;;;;;;5020610;28;19929;-55
2021/09/11 09:42:40;;;;;;;26.80;11.68;;;;;;;;;;5018796;28;20184;-52
2021/09/11 09:45:07;;;;;;;23.80;10.93;;;;;;;;;;5024038;28;20042;-56
2021/09/11 09:47:34;;;;;;;22.08;11.90;;;;;;;;;;5021601;28;20041;-55
2021/09/11 09:50:05;;;;;;;29.10;12.55;;;;;;;;;;5021322;28;20053;-56
2021/09/11 09:52:31;;;;;;;26.65;12.70;;;;;;;;;;5019644;28;20531;-56
2021/09/11 09:55:00;;;;;;;25.10;12.73;;;;;;;;;;5005683;28;20344;-57
2021/09/11 09:57:28;;;;;;;23.65;12.48;;;;;;;;;;5019422;28;20046;-53
2021/09/11 09:59:55;;;;;;;24.00;12.07;;;;;;;;;;5038596;28;20068;-55
2021/09/11 10:02:21;;;;;;;26.90;13.60;;;;;;;;;;5016979;28;20033;-56
2021/09/11 10:04:49;;;;;;;25.75;13.35;;;;;;;;;;5020049;28;20088;-56
2021/09/11 10:07:17;;;;;;;29.15;13.73;;;;;;;;;;5019062;28;20053;-57
2021/09/11 10:09:45;;;;;;;34.43;14.57;;;;;;;;;;5002031;28;20038;-56
2021/09/11 10:12:26;;;;;;;25.45;13.32;;;;;;;;;;5019759;28;20046;-55
2021/09/11 10:15:17;;;;;;;29.50;13.07;;;;;;;;;;5032831;28;20046;-57
2021/09/11 10:17:43;;;;;;;27.85;13.20;;;;;;;;;;4998820;28;20038;-56
2021/09/11 10:20:20;;;;;;;33.97;13.65;;;;;;;;;;5000707;28;20045;-55
2021/09/11 10:23:01;;;;;;;25.50;12.40;;;;;;;;;;5013639;28;20062;-55
2021/09/11 10:25:41;;;;;;;23.27;13.38;;;;;;;;;;5019913;28;20136;-57
2021/09/11 10:28:14;;;;;;;27.55;13.38;;;;;;;;;;5002110;28;20049;-58
2021/09/11 10:31:12;;;;;;;29.17;13.10;;;;;;;;;;5022765;28;20045;-55
2021/09/11 10:33:41;;;;;;;25.13;13.75;;;;;;;;;;4942377;28;20101;-56
2021/09/11 10:36:10;;;;;;;23.58;13.20;;;;;;;;;;4988479;28;20050;-55
2021/09/11 10:38:40;;;;;;;24.83;13.10;;;;;;;;;;4999926;28;20048;-54
2021/09/11 10:41:08;;;;;;;29.33;14.48;;;;;;;;;;5022783;28;20060;-54
2021/09/11 10:43:34;;;;;;;33.95;16.50;;;;;;;;;;5023366;28;20048;-56
2021/09/11 10:46:09;;;;;;;25.40;14.13;;;;;;;;;;5018212;28;20056;-57
2021/09/11 10:48:48;;;;;;;29.75;14.43;;;;;;;;;;5024302;28;20042;-62
2021/09/11 10:51:17;;;;;;;26.25;12.70;;;;;;;;;;5019362;28;20094;-56
2021/09/11 10:53:57;;;;;;;23.38;12.32;;;;;;;;;;5041551;28;20041;-55
2021/09/11 10:56:25;;;;;;;24.65;12.98;;;;;;;;;;5019798;28;20041;-57
2021/09/11 10:59:24;;;;;;;24.40;12.85;;;;;;;;;;5025089;28;20052;-57
2021/09/11 11:01:58;;;;;;;19.58;11.43;;;;;;;;;;4946786;28;20039;-55
2021/09/11 11:04:26;;;;;;;23.77;12.70;;;;;;;;;;4945025;28;20183;-56
2021/09/11 11:06:54;;;;;;;25.15;12.13;;;;;;;;;;4999393;28;20146;-53
2021/09/11 11:09:20;;;;;;;30.33;13.68;;;;;;;;;;5041219;28;20056;-57
2021/09/11 11:11:47;;;;;;;22.02;12.52;;;;;;;;;;5037098;28;20053;-58
2021/09/11 11:14:14;;;;;;;25.70;13.27;;;;;;;;;;5024392;28;20030;-57
2021/09/11 11:16:47;;;;;;;20.58;11.75;;;;;;;;;;5018114;28;20045;-57
2021/09/11 11:19:19;;;;;;;20.85;11.73;;;;;;;;;;5024264;28;20057;-57
2021/09/11 11:21:53;;;;;;;22.30;11.38;;;;;;;;;;5019792;28;20162;-57
2021/09/11 11:24:19;;;;;;;23.30;12.10;;;;;;;;;;5028779;28;20167;-56
2021/09/11 11:26:46;;;;;;;23.30;12.68;;;;;;;;;;5038600;28;20057;-56
2021/09/11 11:29:13;;;;;;;21.88;12.27;;;;;;;;;;5006818;28;20038;-57
2021/09/11 11:31:41;;;;;;;25.13;11.82;;;;;;;;;;5007121;28;20053;-55
2021/09/11 11:34:08;;;;;;;22.02;10.95;;;;;;;;;;5023318;28;20045;-57
2021/09/11 11:36:35;;;;;;;24.05;12.80;;;;;;;;;;5028139;28;20057;-57
2021/09/11 11:39:16;;;;;;;23.30;12.38;;;;;;;;;;5010966;28;20064;-57
2021/09/11 11:41:53;;;;;;;21.25;11.63;;;;;;;;;;5023463;28;20033;-56
2021/09/11 11:44:25;;;;;;;23.98;12.30;;;;;;;;;;5017989;28;20045;-57
2021/09/11 11:46:53;;;;;;;23.80;11.07;;;;;;;;;;5004957;28;20103;-57
2021/09/11 11:49:20;;;;;;;19.02;10.02;;;;;;;;;;5018095;28;20053;-57
2021/09/11 11:51:51;;;;;;;21.00;10.70;;;;;;;;;;5028567;28;20130;-57
2021/09/11 11:54:18;;;;;;;21.40;10.30;;;;;;;;;;5020302;28;20061;-56
2021/09/11 11:56:50;;;;;;;12.02;5.15;;;;;;;;;;5003790;28;20050;-56
2021/09/11 11:59:24;;;;;;;13.80;4.13;;;;;;;;;;5003415;28;20034;-57
2021/09/11 12:01:50;;;;;;;7.78;3.47;;;;;;;;;;5017330;28;20041;-56
2021/09/11 12:04:17;;;;;;;7.72;3.47;;;;;;;;;;5023507;28;20037;-57
2021/09/11 12:06:52;;;;;;;8.52;3.58;;;;;;;;;;5019965;28;20045;-58
2021/09/11 12:09:19;;;;;;;7.53;3.88;;;;;;;;;;5023922;28;20038;-57
2021/09/11 12:11:47;;;;;;;10.30;4.70;;;;;;;;;;5010689;28;20109;-58
2021/09/11 12:14:16;;;;;;;12.40;5.40;;;;;;;;;;5023983;28;20033;-56
2021/09/11 12:16:44;;;;;;;11.27;5.82;;;;;;;;;;5019905;28;20066;-58
2021/09/11 12:19:15;;;;;;;10.23;6.28;;;;;;;;;;5005803;28;20058;-57
2021/09/11 12:21:41;;;;;;;12.52;6.55;;;;;;;;;;5004891;28;20072;-53
2021/09/11 12:24:18;;;;;;;15.55;7.10;;;;;;;;;;5016523;28;20157;-57
2021/09/11 12:26:44;;;;;;;20.10;8.93;;;;;;;;;;5024220;28;20066;-56
2021/09/11 12:29:13;;;;;;;14.75;7.90;;;;;;;;;;5020423;28;20045;-58
2021/09/11 12:31:51;;;;;;;18.20;9.10;;;;;;;;;;5022333;28;20057;-56
2021/09/11 12:34:18;;;;;;;13.40;7.97;;;;;;;;;;5019313;28;20086;-54
2021/09/11 12:36:47;;;;;;;14.18;8.65;;;;;;;;;;5021726;28;20096;-57
2021/09/11 12:39:13;;;;;;;;;;;;;;;;;;5018648;28;20074;-57
2021/09/11 12:41:39;;;;;;;14.93;7.35;;;;;;;;;;5023118;28;20044;-58
2021/09/11 12:44:08;;;;;;;15.10;8.68;;;;;;;;;;5019649;28;20037;-59
2021/09/11 12:46:35;;;;;;;13.52;8.35;;;;;;;;;;5023434;28;20046;-57
2021/09/11 12:49:04;;;;;;;15.93;9.43;;;;;;;;;;5017974;28;20045;-56
2021/09/11 12:51:31;;;;;;;16.10;8.88;;;;;;;;;;5014483;28;20033;-57
2021/09/11 12:53:57;;;;;;;13.18;8.23;;;;;;;;;;5034714;28;20041;-57
2021/09/11 12:56:35;;;;;;;19.38;9.35;;;;;;;;;;5044463;28;20025;-56
2021/09/11 12:59:02;;;;;;;14.73;8.40;;;;;;;;;;5022987;28;20033;-57
2021/09/11 13:01:28;;;;;;;15.60;8.77;;;;;;;;;;5026464;28;20037;-55
2021/09/11 13:03:55;;;;;;;13.32;7.75;;;;;;;;;;5027534;28;20037;-57
2021/09/11 13:06:23;;;;;;;14.70;8.52;;;;;;;;;;5038142;28;20224;-58
2021/09/11 13:08:50;;;;;;;15.68;9.18;;;;;;;;;;5041248;28;20050;-57
2021/09/11 13:11:17;;;;;;;17.77;8.30;;;;;;;;;;5038024;28;20100;-58
2021/09/11 13:13:43;;;;;;;14.85;8.75;;;;;;;;;;5041923;28;20042;-57
2021/09/11 13:16:11;;;;;;;14.43;7.90;;;;;;;;;;5037750;28;20041;-57
2021/09/11 13:18:41;;;;;;;14.18;7.57;;;;;;;;;;5025499;28;20038;-58
2021/09/11 13:21:11;;;;;;;14.70;6.85;;;;;;;;;;5014783;28;20057;-55
2021/09/11 13:23:40;;;;;;;11.18;6.30;;;;;;;;;;5007440;28;20049;-57
2021/09/11 13:26:09;;;;;;;12.25;6.60;;;;;;;;;;4993954;28;20118;-57
2021/09/11 13:28:37;;;;;;;16.25;6.10;;;;;;;;;;5008525;28;20048;-57
2021/09/11 13:31:03;;;;;;;10.18;6.35;;;;;;;;;;5022950;28;20097;-57
2021/09/11 13:33:29;;;;;;;11.52;5.97;;;;;;;;;;5009415;28;20072;-55
2021/09/11 13:35:58;;;;;;;10.57;5.72;;;;;;;;;;5020863;28;20041;-57
2021/09/11 13:38:25;;;;;;;13.05;5.90;;;;;;;;;;5039944;28;20096;-57
2021/09/11 13:40:52;;;;;;;11.85;5.15;;;;;;;;;;5037213;28;20057;-57
2021/09/11 13:43:19;;;;;;;10.27;5.25;;;;;;;;;;5023981;28;20057;-57
2021/09/11 13:45:47;;;;;;;10.57;6.00;;;;;;;;;;5024137;28;20037;-57
2021/09/11 13:48:13;;;;;;;14.68;8.52;;;;;;;;;;5021880;28;20062;-57
2021/09/11 13:50:40;;;;;;;15.80;5.90;;;;;;;;;;5023949;28;20044;-58
2021/09/11 13:53:06;;;;;;;9.30;3.65;;;;;;;;;;5021098;28;20037;-57
2021/09/11 13:55:37;;;;;;;4.82;2.40;;;;;;;;;;5022793;28;20124;-57
2021/09/11 13:58:05;;;;;;;4.43;2.35;;;;;;;;;;5021719;28;20057;-56
2021/09/11 14:00:32;;;;;;;7.63;2.30;;;;;;;;;;5023493;28;20046;-56
2021/09/11 14:02:58;;;;;;;10.88;3.33;;;;;;;;;;5032352;28;20101;-58
2021/09/11 14:05:28;;;;;;;7.03;2.92;;;;;;;;;;5003884;28;20045;-55
2021/09/11 14:07:55;;;;;;;7.55;2.95;;;;;;;;;;5010943;28;20038;-54
2021/09/11 14:10:22;;;;;;;7.72;3.20;;;;;;;;;;5024555;28;20042;-52
2021/09/11 14:12:49;;;;;;;7.45;2.97;;;;;;;;;;5021829;28;20056;-56
2021/09/11 14:15:21;;;;;;;5.47;3.00;;;;;;;;;;5022931;28;20034;-57
2021/09/11 14:17:48;;;;;;;6.47;3.38;;;;;;;;;;5019581;28;20042;-57
2021/09/11 14:20:15;;;;;;;7.90;3.72;;;;;;;;;;5025251;28;20104;-56
2021/09/11 14:22:41;;;;;;;10.73;5.43;;;;;;;;;;5021831;28;20048;-56
2021/09/11 14:25:08;;;;;;;9.02;4.55;;;;;;;;;;5023424;28;20112;-58
2021/09/11 14:27:35;;;;;;;9.80;5.32;;;;;;;;;;5020617;28;20049;-57
2021/09/11 14:30:01;;;;;;;9.18;4.75;;;;;;;;;;5025778;28;20050;-58
2021/09/11 14:32:29;;;;;;;8.55;4.78;;;;;;;;;;5024623;28;20112;-53